sensor_id;sensor_type;location;lat;lon;timestamp;temperature;humidity
17415;DHT22;8825;48.086;16.426;2023-08-08T00:00:59;16.80;58.50
17415;DHT22;8825;48.086;16.426;2023-08-08T00:03:27;16.80;58.50
17415;DHT22;8825;48.086;16.426;2023-08-08T00:05:55;16.80;58.40
17415;DHT22;8825;48.086;16.426;2023-08-08T00:08:22;16.80;59.00
17415;DHT22;8825;48.086;16.426;2023-08-08T00:10:50;16.80;58.40
17415;DHT22;8825;48.086;16.426;2023-08-08T00:13:17;16.80;58.40
17415;DHT22;8825;48.086;16.426;2023-08-08T00:15:46;16.80;58.50
17415;DHT22;8825;48.086;16.426;2023-08-08T00:18:14;16.80;58.50
17415;DHT22;8825;48.086;16.426;2023-08-08T00:20:41;16.70;58.50
17415;DHT22;8825;48.086;16.426;2023-08-08T00:23:09;16.70;58.60
17415;DHT22;8825;48.086;16.426;2023-08-08T00:25:36;16.70;59.10
17415;DHT22;8825;48.086;16.426;2023-08-08T00:28:04;16.70;58.50
17415;DHT22;8825;48.086;16.426;2023-08-08T00:30:31;16.70;58.50
17415;DHT22;8825;48.086;16.426;2023-08-08T00:32:59;16.70;58.40
17415;DHT22;8825;48.086;16.426;2023-08-08T00:35:26;16.70;58.50
17415;DHT22;8825;48.086;16.426;2023-08-08T00:37:54;16.70;58.50
17415;DHT22;8825;48.086;16.426;2023-08-08T00:40:21;16.70;58.50
17415;DHT22;8825;48.086;16.426;2023-08-08T00:42:49;16.60;58.50
17415;DHT22;8825;48.086;16.426;2023-08-08T00:45:16;16.60;58.60
17415;DHT22;8825;48.086;16.426;2023-08-08T00:47:45;16.60;58.60
17415;DHT22;8825;48.086;16.426;2023-08-08T00:50:13;16.60;58.70
17415;DHT22;8825;48.086;16.426;2023-08-08T00:52:42;16.60;58.70
17415;DHT22;8825;48.086;16.426;2023-08-08T00:55:10;16.60;58.80
17415;DHT22;8825;48.086;16.426;2023-08-08T00:57:38;16.60;58.70
17415;DHT22;8825;48.086;16.426;2023-08-08T01:00:07;16.60;58.70
17415;DHT22;8825;48.086;16.426;2023-08-08T01:02:38;16.60;59.00
17415;DHT22;8825;48.086;16.426;2023-08-08T01:05:07;16.60;58.70
17415;DHT22;8825;48.086;16.426;2023-08-08T01:10:24;16.60;58.70
17415;DHT22;8825;48.086;16.426;2023-08-08T01:12:56;16.50;58.70
17415;DHT22;8825;48.086;16.426;2023-08-08T01:15:23;16.50;58.70
17415;DHT22;8825;48.086;16.426;2023-08-08T01:17:51;16.50;58.80
17415;DHT22;8825;48.086;16.426;2023-08-08T01:20:19;16.50;58.80
17415;DHT22;8825;48.086;16.426;2023-08-08T01:22:56;16.50;58.80
17415;DHT22;8825;48.086;16.426;2023-08-08T01:25:23;16.50;58.80
17415;DHT22;8825;48.086;16.426;2023-08-08T01:27:51;16.50;58.80
17415;DHT22;8825;48.086;16.426;2023-08-08T01:30:18;16.50;58.80
17415;DHT22;8825;48.086;16.426;2023-08-08T01:32:46;16.50;58.90
17415;DHT22;8825;48.086;16.426;2023-08-08T01:35:14;16.50;59.00
17415;DHT22;8825;48.086;16.426;2023-08-08T01:37:46;16.50;59.00
17415;DHT22;8825;48.086;16.426;2023-08-08T01:40:16;16.50;59.00
17415;DHT22;8825;48.086;16.426;2023-08-08T01:42:46;16.50;59.00
17415;DHT22;8825;48.086;16.426;2023-08-08T01:45:15;16.50;59.10
17415;DHT22;8825;48.086;16.426;2023-08-08T01:47:49;16.50;59.10
17415;DHT22;8825;48.086;16.426;2023-08-08T01:50:12;16.50;59.10
17415;DHT22;8825;48.086;16.426;2023-08-08T01:52:40;16.50;59.20
17415;DHT22;8825;48.086;16.426;2023-08-08T01:55:08;16.50;59.20
17415;DHT22;8825;48.086;16.426;2023-08-08T01:57:36;16.50;59.20
17415;DHT22;8825;48.086;16.426;2023-08-08T02:00:04;16.50;59.20
17415;DHT22;8825;48.086;16.426;2023-08-08T02:02:32;16.50;59.20
17415;DHT22;8825;48.086;16.426;2023-08-08T02:05:02;16.40;59.20
17415;DHT22;8825;48.086;16.426;2023-08-08T02:07:29;16.40;59.20
17415;DHT22;8825;48.086;16.426;2023-08-08T02:09:57;16.40;59.30
17415;DHT22;8825;48.086;16.426;2023-08-08T02:12:25;16.40;59.40
17415;DHT22;8825;48.086;16.426;2023-08-08T02:14:52;16.40;59.40
17415;DHT22;8825;48.086;16.426;2023-08-08T02:17:20;16.40;59.40
17415;DHT22;8825;48.086;16.426;2023-08-08T02:19:48;16.40;59.50
17415;DHT22;8825;48.086;16.426;2023-08-08T02:22:16;16.30;59.40
17415;DHT22;8825;48.086;16.426;2023-08-08T02:24:44;16.30;59.50
17415;DHT22;8825;48.086;16.426;2023-08-08T02:27:12;16.30;59.50
17415;DHT22;8825;48.086;16.426;2023-08-08T02:29:40;16.30;59.60
17415;DHT22;8825;48.086;16.426;2023-08-08T02:32:08;16.30;59.60
17415;DHT22;8825;48.086;16.426;2023-08-08T02:34:35;16.20;59.60
17415;DHT22;8825;48.086;16.426;2023-08-08T02:37:03;16.20;59.60
17415;DHT22;8825;48.086;16.426;2023-08-08T02:39:31;16.20;59.70
17415;DHT22;8825;48.086;16.426;2023-08-08T02:41:58;16.20;59.80
17415;DHT22;8825;48.086;16.426;2023-08-08T02:44:26;16.20;59.90
17415;DHT22;8825;48.086;16.426;2023-08-08T02:46:53;16.20;59.80
17415;DHT22;8825;48.086;16.426;2023-08-08T02:49:21;16.20;59.90
17415;DHT22;8825;48.086;16.426;2023-08-08T02:51:48;16.10;59.90
17415;DHT22;8825;48.086;16.426;2023-08-08T02:54:16;16.10;60.10
17415;DHT22;8825;48.086;16.426;2023-08-08T02:56:43;16.10;60.10
17415;DHT22;8825;48.086;16.426;2023-08-08T02:59:11;16.10;60.20
17415;DHT22;8825;48.086;16.426;2023-08-08T03:01:38;16.00;60.30
17415;DHT22;8825;48.086;16.426;2023-08-08T03:04:06;16.00;60.50
17415;DHT22;8825;48.086;16.426;2023-08-08T03:06:34;16.00;60.60
17415;DHT22;8825;48.086;16.426;2023-08-08T03:09:01;16.00;60.70
17415;DHT22;8825;48.086;16.426;2023-08-08T03:11:29;15.90;60.60
17415;DHT22;8825;48.086;16.426;2023-08-08T03:13:56;15.90;60.70
17415;DHT22;8825;48.086;16.426;2023-08-08T03:16:24;15.90;60.90
17415;DHT22;8825;48.086;16.426;2023-08-08T03:18:51;15.90;61.00
17415;DHT22;8825;48.086;16.426;2023-08-08T03:21:19;15.80;60.90
17415;DHT22;8825;48.086;16.426;2023-08-08T03:23:46;15.80;61.10
17415;DHT22;8825;48.086;16.426;2023-08-08T03:26:14;15.80;61.20
17415;DHT22;8825;48.086;16.426;2023-08-08T03:28:41;15.80;61.30
17415;DHT22;8825;48.086;16.426;2023-08-08T03:31:09;15.70;61.30
17415;DHT22;8825;48.086;16.426;2023-08-08T03:33:36;15.70;61.50
17415;DHT22;8825;48.086;16.426;2023-08-08T03:36:04;15.70;61.50
17415;DHT22;8825;48.086;16.426;2023-08-08T03:38:32;15.70;61.50
17415;DHT22;8825;48.086;16.426;2023-08-08T03:41:00;15.70;61.50
17415;DHT22;8825;48.086;16.426;2023-08-08T03:43:28;15.70;61.70
17415;DHT22;8825;48.086;16.426;2023-08-08T03:45:55;15.60;61.70
17415;DHT22;8825;48.086;16.426;2023-08-08T03:48:23;15.60;61.80
17415;DHT22;8825;48.086;16.426;2023-08-08T03:50:50;15.60;61.90
17415;DHT22;8825;48.086;16.426;2023-08-08T03:53:18;15.60;61.90
17415;DHT22;8825;48.086;16.426;2023-08-08T03:55:45;15.60;61.90
17415;DHT22;8825;48.086;16.426;2023-08-08T03:58:13;15.60;62.00
17415;DHT22;8825;48.086;16.426;2023-08-08T04:00:40;15.60;62.30
17415;DHT22;8825;48.086;16.426;2023-08-08T04:03:10;15.60;62.00
17415;DHT22;8825;48.086;16.426;2023-08-08T04:05:37;15.60;62.10
17415;DHT22;8825;48.086;16.426;2023-08-08T04:08:05;15.60;62.00
17415;DHT22;8825;48.086;16.426;2023-08-08T04:10:33;15.60;62.10
17415;DHT22;8825;48.086;16.426;2023-08-08T04:13:00;15.60;61.90
17415;DHT22;8825;48.086;16.426;2023-08-08T04:15:28;15.70;62.00
17415;DHT22;8825;48.086;16.426;2023-08-08T04:17:56;15.60;61.90
17415;DHT22;8825;48.086;16.426;2023-08-08T04:20:23;15.60;61.90
17415;DHT22;8825;48.086;16.426;2023-08-08T04:22:51;15.60;62.00
17415;DHT22;8825;48.086;16.426;2023-08-08T04:25:18;15.60;62.10
17415;DHT22;8825;48.086;16.426;2023-08-08T04:27:47;15.60;62.10
17415;DHT22;8825;48.086;16.426;2023-08-08T04:30:15;15.60;62.00
17415;DHT22;8825;48.086;16.426;2023-08-08T04:32:42;15.60;62.00
17415;DHT22;8825;48.086;16.426;2023-08-08T04:35:10;15.70;62.10
17415;DHT22;8825;48.086;16.426;2023-08-08T04:37:37;15.70;62.10
17415;DHT22;8825;48.086;16.426;2023-08-08T04:40:06;15.70;62.20
17415;DHT22;8825;48.086;16.426;2023-08-08T04:42:34;15.80;62.40
17415;DHT22;8825;48.086;16.426;2023-08-08T04:45:02;15.80;62.80
17415;DHT22;8825;48.086;16.426;2023-08-08T04:47:30;15.80;63.20
17415;DHT22;8825;48.086;16.426;2023-08-08T04:49:57;15.90;63.40
17415;DHT22;8825;48.086;16.426;2023-08-08T04:52:25;15.90;63.50
17415;DHT22;8825;48.086;16.426;2023-08-08T04:54:52;15.90;63.70
17415;DHT22;8825;48.086;16.426;2023-08-08T04:57:20;16.00;63.80
17415;DHT22;8825;48.086;16.426;2023-08-08T04:59:47;16.00;63.60
17415;DHT22;8825;48.086;16.426;2023-08-08T05:02:15;16.10;63.50
17415;DHT22;8825;48.086;16.426;2023-08-08T05:04:43;16.10;63.40
17415;DHT22;8825;48.086;16.426;2023-08-08T05:07:10;16.20;63.30
17415;DHT22;8825;48.086;16.426;2023-08-08T05:09:38;16.20;63.30
17415;DHT22;8825;48.086;16.426;2023-08-08T05:12:06;16.20;63.10
17415;DHT22;8825;48.086;16.426;2023-08-08T05:14:33;16.20;63.00
17415;DHT22;8825;48.086;16.426;2023-08-08T05:17:02;16.30;62.90
17415;DHT22;8825;48.086;16.426;2023-08-08T05:19:29;16.30;62.70
17415;DHT22;8825;48.086;16.426;2023-08-08T05:21:57;16.40;62.70
17415;DHT22;8825;48.086;16.426;2023-08-08T05:24:25;16.50;62.50
17415;DHT22;8825;48.086;16.426;2023-08-08T05:26:52;16.60;62.30
17415;DHT22;8825;48.086;16.426;2023-08-08T05:29:22;16.70;62.20
17415;DHT22;8825;48.086;16.426;2023-08-08T05:31:50;16.80;61.90
17415;DHT22;8825;48.086;16.426;2023-08-08T05:34:18;16.90;61.80
17415;DHT22;8825;48.086;16.426;2023-08-08T05:36:45;17.00;62.40
17415;DHT22;8825;48.086;16.426;2023-08-08T05:39:13;17.20;61.40
17415;DHT22;8825;48.086;16.426;2023-08-08T05:41:40;17.30;60.30
17415;DHT22;8825;48.086;16.426;2023-08-08T05:44:08;17.40;60.50
17415;DHT22;8825;48.086;16.426;2023-08-08T05:46:35;17.50;60.40
17415;DHT22;8825;48.086;16.426;2023-08-08T05:49:03;17.70;59.90
17415;DHT22;8825;48.086;16.426;2023-08-08T05:51:30;17.90;59.60
17415;DHT22;8825;48.086;16.426;2023-08-08T05:53:58;18.00;59.10
17415;DHT22;8825;48.086;16.426;2023-08-08T05:56:27;18.10;58.80
17415;DHT22;8825;48.086;16.426;2023-08-08T05:58:55;18.20;58.70
17415;DHT22;8825;48.086;16.426;2023-08-08T06:01:22;18.30;58.30
17415;DHT22;8825;48.086;16.426;2023-08-08T06:03:50;18.40;57.90
17415;DHT22;8825;48.086;16.426;2023-08-08T06:06:17;18.50;57.70
17415;DHT22;8825;48.086;16.426;2023-08-08T06:08:45;18.60;57.40
17415;DHT22;8825;48.086;16.426;2023-08-08T06:11:12;18.60;57.30
17415;DHT22;8825;48.086;16.426;2023-08-08T06:13:40;18.70;57.00
17415;DHT22;8825;48.086;16.426;2023-08-08T06:16:07;18.80;56.70
17415;DHT22;8825;48.086;16.426;2023-08-08T06:18:35;19.00;56.60
17415;DHT22;8825;48.086;16.426;2023-08-08T06:21:02;19.00;56.30
17415;DHT22;8825;48.086;16.426;2023-08-08T06:23:30;19.10;56.10
17415;DHT22;8825;48.086;16.426;2023-08-08T06:25:58;19.20;55.90
17415;DHT22;8825;48.086;16.426;2023-08-08T06:28:25;19.20;55.70
17415;DHT22;8825;48.086;16.426;2023-08-08T06:30:53;19.30;55.40
17415;DHT22;8825;48.086;16.426;2023-08-08T06:33:20;19.40;55.30
17415;DHT22;8825;48.086;16.426;2023-08-08T06:35:48;19.50;54.90
17415;DHT22;8825;48.086;16.426;2023-08-08T06:38:15;19.50;54.70
17415;DHT22;8825;48.086;16.426;2023-08-08T06:40:43;19.60;54.50
17415;DHT22;8825;48.086;16.426;2023-08-08T06:43:10;19.70;54.30
17415;DHT22;8825;48.086;16.426;2023-08-08T06:45:38;19.70;54.30
17415;DHT22;8825;48.086;16.426;2023-08-08T06:48:06;19.70;54.20
17415;DHT22;8825;48.086;16.426;2023-08-08T06:50:34;19.80;54.10
17415;DHT22;8825;48.086;16.426;2023-08-08T06:53:03;19.80;53.80
17415;DHT22;8825;48.086;16.426;2023-08-08T06:55:30;19.90;53.80
17415;DHT22;8825;48.086;16.426;2023-08-08T06:57:58;19.90;53.90
17415;DHT22;8825;48.086;16.426;2023-08-08T07:00:25;19.90;53.80
17415;DHT22;8825;48.086;16.426;2023-08-08T07:02:54;19.90;53.80
17415;DHT22;8825;48.086;16.426;2023-08-08T07:05:21;19.90;53.80
17415;DHT22;8825;48.086;16.426;2023-08-08T07:07:52;20.00;53.60
17415;DHT22;8825;48.086;16.426;2023-08-08T07:10:20;20.00;53.20
17415;DHT22;8825;48.086;16.426;2023-08-08T07:12:47;20.10;53.00
17415;DHT22;8825;48.086;16.426;2023-08-08T07:15:15;20.20;53.00
17415;DHT22;8825;48.086;16.426;2023-08-08T07:17:42;20.20;52.70
17415;DHT22;8825;48.086;16.426;2023-08-08T07:20:10;20.30;52.70
17415;DHT22;8825;48.086;16.426;2023-08-08T07:22:40;20.30;52.50
17415;DHT22;8825;48.086;16.426;2023-08-08T07:25:08;20.40;52.50
17415;DHT22;8825;48.086;16.426;2023-08-08T07:27:36;20.50;52.50
17415;DHT22;8825;48.086;16.426;2023-08-08T07:30:04;20.50;52.50
17415;DHT22;8825;48.086;16.426;2023-08-08T07:32:33;20.60;52.40
17415;DHT22;8825;48.086;16.426;2023-08-08T07:35:01;20.70;52.30
17415;DHT22;8825;48.086;16.426;2023-08-08T07:37:30;20.70;52.10
17415;DHT22;8825;48.086;16.426;2023-08-08T07:39:58;20.80;51.90
17415;DHT22;8825;48.086;16.426;2023-08-08T07:42:26;20.90;51.60
17415;DHT22;8825;48.086;16.426;2023-08-08T07:44:54;20.90;51.50
17415;DHT22;8825;48.086;16.426;2023-08-08T07:47:21;21.00;51.40
17415;DHT22;8825;48.086;16.426;2023-08-08T07:49:49;21.10;51.30
17415;DHT22;8825;48.086;16.426;2023-08-08T07:52:16;21.20;51.20
17415;DHT22;8825;48.086;16.426;2023-08-08T07:54:44;21.30;51.00
17415;DHT22;8825;48.086;16.426;2023-08-08T07:57:11;21.50;50.80
17415;DHT22;8825;48.086;16.426;2023-08-08T07:59:39;21.60;50.70
17415;DHT22;8825;48.086;16.426;2023-08-08T08:02:06;21.70;49.50
17415;DHT22;8825;48.086;16.426;2023-08-08T08:04:34;21.80;49.10
17415;DHT22;8825;48.086;16.426;2023-08-08T08:07:02;21.80;48.50
17415;DHT22;8825;48.086;16.426;2023-08-08T08:09:29;21.90;48.70
17415;DHT22;8825;48.086;16.426;2023-08-08T08:11:57;22.00;48.40
17415;DHT22;8825;48.086;16.426;2023-08-08T08:14:24;22.10;48.30
17415;DHT22;8825;48.086;16.426;2023-08-08T08:16:52;22.20;48.00
17415;DHT22;8825;48.086;16.426;2023-08-08T08:19:20;22.30;47.50
17415;DHT22;8825;48.086;16.426;2023-08-08T08:21:47;22.50;47.20
17415;DHT22;8825;48.086;16.426;2023-08-08T08:24:15;22.60;46.50
17415;DHT22;8825;48.086;16.426;2023-08-08T08:26:43;22.70;46.10
17415;DHT22;8825;48.086;16.426;2023-08-08T08:29:10;22.80;46.10
17415;DHT22;8825;48.086;16.426;2023-08-08T08:31:38;22.90;46.20
17415;DHT22;8825;48.086;16.426;2023-08-08T08:34:05;23.00;45.70
17415;DHT22;8825;48.086;16.426;2023-08-08T08:36:33;23.10;46.00
17415;DHT22;8825;48.086;16.426;2023-08-08T08:39:00;23.10;45.80
17415;DHT22;8825;48.086;16.426;2023-08-08T08:41:28;23.20;45.60
17415;DHT22;8825;48.086;16.426;2023-08-08T08:43:57;23.20;45.20
17415;DHT22;8825;48.086;16.426;2023-08-08T08:46:26;23.10;45.10
17415;DHT22;8825;48.086;16.426;2023-08-08T08:48:55;23.10;45.30
17415;DHT22;8825;48.086;16.426;2023-08-08T08:51:25;23.10;45.60
17415;DHT22;8825;48.086;16.426;2023-08-08T08:53:52;23.10;45.70
17415;DHT22;8825;48.086;16.426;2023-08-08T08:56:20;23.10;45.70
17415;DHT22;8825;48.086;16.426;2023-08-08T08:58:49;23.00;45.50
17415;DHT22;8825;48.086;16.426;2023-08-08T09:01:17;23.00;45.20
17415;DHT22;8825;48.086;16.426;2023-08-08T09:03:45;22.90;45.30
17415;DHT22;8825;48.086;16.426;2023-08-08T09:06:13;22.80;45.40
17415;DHT22;8825;48.086;16.426;2023-08-08T09:08:42;22.70;45.20
17415;DHT22;8825;48.086;16.426;2023-08-08T09:11:11;22.70;45.10
17415;DHT22;8825;48.086;16.426;2023-08-08T09:13:40;22.60;45.60
17415;DHT22;8825;48.086;16.426;2023-08-08T09:16:08;22.60;46.00
17415;DHT22;8825;48.086;16.426;2023-08-08T09:18:36;22.60;46.10
17415;DHT22;8825;48.086;16.426;2023-08-08T09:21:05;22.70;46.30
17415;DHT22;8825;48.086;16.426;2023-08-08T09:23:33;22.70;46.30
17415;DHT22;8825;48.086;16.426;2023-08-08T09:26:01;22.80;46.30
17415;DHT22;8825;48.086;16.426;2023-08-08T09:28:28;22.90;46.30
17415;DHT22;8825;48.086;16.426;2023-08-08T09:30:56;23.00;46.30
17415;DHT22;8825;48.086;16.426;2023-08-08T09:33:29;23.10;45.80
17415;DHT22;8825;48.086;16.426;2023-08-08T09:35:56;23.40;46.00
17415;DHT22;8825;48.086;16.426;2023-08-08T09:38:24;23.60;44.90
17415;DHT22;8825;48.086;16.426;2023-08-08T09:40:51;23.70;43.70
17415;DHT22;8825;48.086;16.426;2023-08-08T09:43:19;23.80;44.30
17415;DHT22;8825;48.086;16.426;2023-08-08T09:45:48;24.10;43.50
17415;DHT22;8825;48.086;16.426;2023-08-08T09:48:16;24.70;42.20
17415;DHT22;8825;48.086;16.426;2023-08-08T09:50:46;25.20;40.70
17415;DHT22;8825;48.086;16.426;2023-08-08T09:53:14;25.70;40.80
17415;DHT22;8825;48.086;16.426;2023-08-08T09:55:42;26.30;40.30
17415;DHT22;8825;48.086;16.426;2023-08-08T09:58:10;26.50;39.20
17415;DHT22;8825;48.086;16.426;2023-08-08T10:00:39;26.90;38.10
17415;DHT22;8825;48.086;16.426;2023-08-08T10:03:08;27.30;37.30
17415;DHT22;8825;48.086;16.426;2023-08-08T10:05:35;27.90;37.10
17415;DHT22;8825;48.086;16.426;2023-08-08T10:08:05;28.50;35.90
17415;DHT22;8825;48.086;16.426;2023-08-08T10:10:33;28.60;34.10
17415;DHT22;8825;48.086;16.426;2023-08-08T10:13:01;28.70;33.70
17415;DHT22;8825;48.086;16.426;2023-08-08T10:15:29;29.00;34.10
17415;DHT22;8825;48.086;16.426;2023-08-08T10:17:57;29.40;33.10
17415;DHT22;8825;48.086;16.426;2023-08-08T10:20:25;29.60;32.30
17415;DHT22;8825;48.086;16.426;2023-08-08T10:22:54;29.40;31.80
17415;DHT22;8825;48.086;16.426;2023-08-08T10:25:30;29.20;32.20
17415;DHT22;8825;48.086;16.426;2023-08-08T10:28:08;29.40;31.40
17415;DHT22;8825;48.086;16.426;2023-08-08T10:30:49;29.70;31.30
17415;DHT22;8825;48.086;16.426;2023-08-08T10:33:19;29.60;30.80
17415;DHT22;8825;48.086;16.426;2023-08-08T10:35:58;29.50;31.00
17415;DHT22;8825;48.086;16.426;2023-08-08T10:38:38;29.60;31.50
17415;DHT22;8825;48.086;16.426;2023-08-08T10:40:59;29.60;31.20
17415;DHT22;8825;48.086;16.426;2023-08-08T10:43:28;29.70;31.60
17415;DHT22;8825;48.086;16.426;2023-08-08T10:46:03;29.90;31.20
17415;DHT22;8825;48.086;16.426;2023-08-08T10:48:31;29.90;31.50
17415;DHT22;8825;48.086;16.426;2023-08-08T10:51:00;29.70;32.00
17415;DHT22;8825;48.086;16.426;2023-08-08T10:53:29;29.70;31.60
17415;DHT22;8825;48.086;16.426;2023-08-08T10:56:05;29.60;31.60
17415;DHT22;8825;48.086;16.426;2023-08-08T10:58:48;29.50;31.70
17415;DHT22;8825;48.086;16.426;2023-08-08T11:01:08;29.40;31.70
17415;DHT22;8825;48.086;16.426;2023-08-08T11:03:37;29.20;31.50
17415;DHT22;8825;48.086;16.426;2023-08-08T11:06:08;28.90;31.00
17415;DHT22;8825;48.086;16.426;2023-08-08T11:08:37;28.70;31.30
17415;DHT22;8825;48.086;16.426;2023-08-08T11:11:05;28.50;31.20
17415;DHT22;8825;48.086;16.426;2023-08-08T11:13:33;28.30;31.50
17415;DHT22;8825;48.086;16.426;2023-08-08T11:16:01;28.00;31.70
17415;DHT22;8825;48.086;16.426;2023-08-08T11:18:29;27.70;31.80
17415;DHT22;8825;48.086;16.426;2023-08-08T11:20:57;27.80;32.30
17415;DHT22;8825;48.086;16.426;2023-08-08T11:23:24;27.90;32.30
17415;DHT22;8825;48.086;16.426;2023-08-08T11:25:52;27.80;31.90
17415;DHT22;8825;48.086;16.426;2023-08-08T11:28:19;27.70;32.30
17415;DHT22;8825;48.086;16.426;2023-08-08T11:30:47;27.70;33.00
17415;DHT22;8825;48.086;16.426;2023-08-08T11:33:14;27.80;33.50
17415;DHT22;8825;48.086;16.426;2023-08-08T11:35:45;27.60;32.00
17415;DHT22;8825;48.086;16.426;2023-08-08T11:38:15;27.50;32.00
17415;DHT22;8825;48.086;16.426;2023-08-08T11:40:44;27.60;32.10
17415;DHT22;8825;48.086;16.426;2023-08-08T11:43:12;27.60;32.20
17415;DHT22;8825;48.086;16.426;2023-08-08T11:45:40;27.50;31.80
17415;DHT22;8825;48.086;16.426;2023-08-08T11:48:09;27.40;33.20
17415;DHT22;8825;48.086;16.426;2023-08-08T11:50:37;27.50;33.50
17415;DHT22;8825;48.086;16.426;2023-08-08T11:53:07;27.50;33.60
17415;DHT22;8825;48.086;16.426;2023-08-08T11:55:36;27.60;34.00
17415;DHT22;8825;48.086;16.426;2023-08-08T11:58:04;27.60;33.10
17415;DHT22;8825;48.086;16.426;2023-08-08T12:00:32;27.50;33.30
17415;DHT22;8825;48.086;16.426;2023-08-08T12:03:01;27.60;33.60
17415;DHT22;8825;48.086;16.426;2023-08-08T12:05:53;27.70;33.30
17415;DHT22;8825;48.086;16.426;2023-08-08T12:08:01;27.80;33.80
17415;DHT22;8825;48.086;16.426;2023-08-08T12:10:30;27.90;33.70
17415;DHT22;8825;48.086;16.426;2023-08-08T12:12:58;27.80;32.70
17415;DHT22;8825;48.086;16.426;2023-08-08T12:15:33;27.70;32.30
17415;DHT22;8825;48.086;16.426;2023-08-08T12:18:04;27.50;31.90
17415;DHT22;8825;48.086;16.426;2023-08-08T12:20:32;27.40;31.10
17415;DHT22;8825;48.086;16.426;2023-08-08T12:23:00;27.40;30.00
17415;DHT22;8825;48.086;16.426;2023-08-08T12:25:28;27.30;30.00
17415;DHT22;8825;48.086;16.426;2023-08-08T12:27:55;27.30;30.00
17415;DHT22;8825;48.086;16.426;2023-08-08T12:30:23;27.20;29.90
17415;DHT22;8825;48.086;16.426;2023-08-08T12:32:50;27.10;29.70
17415;DHT22;8825;48.086;16.426;2023-08-08T12:35:18;26.90;29.70
17415;DHT22;8825;48.086;16.426;2023-08-08T12:37:47;26.80;30.00
17415;DHT22;8825;48.086;16.426;2023-08-08T12:40:14;26.80;30.40
17415;DHT22;8825;48.086;16.426;2023-08-08T12:42:42;26.70;30.50
17415;DHT22;8825;48.086;16.426;2023-08-08T12:45:09;26.60;30.80
17415;DHT22;8825;48.086;16.426;2023-08-08T12:47:37;26.60;30.70
17415;DHT22;8825;48.086;16.426;2023-08-08T12:50:05;26.70;31.30
17415;DHT22;8825;48.086;16.426;2023-08-08T12:52:34;26.90;31.20
17415;DHT22;8825;48.086;16.426;2023-08-08T12:55:02;27.20;31.00
17415;DHT22;8825;48.086;16.426;2023-08-08T12:57:30;27.30;30.70
17415;DHT22;8825;48.086;16.426;2023-08-08T12:59:58;27.30;30.00
17415;DHT22;8825;48.086;16.426;2023-08-08T13:02:25;27.30;30.10
17415;DHT22;8825;48.086;16.426;2023-08-08T13:04:53;27.10;30.60
17415;DHT22;8825;48.086;16.426;2023-08-08T13:07:21;26.90;30.20
17415;DHT22;8825;48.086;16.426;2023-08-08T13:09:49;26.80;30.40
17415;DHT22;8825;48.086;16.426;2023-08-08T13:12:16;26.70;29.10
17415;DHT22;8825;48.086;16.426;2023-08-08T13:14:44;26.60;29.30
17415;DHT22;8825;48.086;16.426;2023-08-08T13:17:11;26.60;29.70
17415;DHT22;8825;48.086;16.426;2023-08-08T13:19:40;26.60;30.00
17415;DHT22;8825;48.086;16.426;2023-08-08T13:22:07;26.50;29.80
17415;DHT22;8825;48.086;16.426;2023-08-08T13:24:35;26.30;29.30
17415;DHT22;8825;48.086;16.426;2023-08-08T13:27:02;26.20;29.80
17415;DHT22;8825;48.086;16.426;2023-08-08T13:29:30;26.00;29.70
17415;DHT22;8825;48.086;16.426;2023-08-08T13:31:58;26.00;29.90
17415;DHT22;8825;48.086;16.426;2023-08-08T13:34:25;26.00;30.80
17415;DHT22;8825;48.086;16.426;2023-08-08T13:36:53;26.10;31.00
17415;DHT22;8825;48.086;16.426;2023-08-08T13:39:21;26.10;32.30
17415;DHT22;8825;48.086;16.426;2023-08-08T13:41:49;25.90;33.20
17415;DHT22;8825;48.086;16.426;2023-08-08T13:44:16;25.80;34.40
17415;DHT22;8825;48.086;16.426;2023-08-08T13:46:44;25.60;34.60
17415;DHT22;8825;48.086;16.426;2023-08-08T13:49:12;25.40;34.40
17415;DHT22;8825;48.086;16.426;2023-08-08T13:51:39;25.30;34.20
17415;DHT22;8825;48.086;16.426;2023-08-08T13:54:07;25.30;34.90
17415;DHT22;8825;48.086;16.426;2023-08-08T13:56:34;25.20;34.60
17415;DHT22;8825;48.086;16.426;2023-08-08T13:59:02;25.20;35.10
17415;DHT22;8825;48.086;16.426;2023-08-08T14:01:29;25.10;34.80
17415;DHT22;8825;48.086;16.426;2023-08-08T14:03:57;25.00;35.30
17415;DHT22;8825;48.086;16.426;2023-08-08T14:06:24;24.80;34.80
17415;DHT22;8825;48.086;16.426;2023-08-08T14:08:53;24.70;35.30
17415;DHT22;8825;48.086;16.426;2023-08-08T14:11:21;24.60;35.60
17415;DHT22;8825;48.086;16.426;2023-08-08T14:13:48;24.60;35.90
17415;DHT22;8825;48.086;16.426;2023-08-08T14:16:16;24.70;37.20
17415;DHT22;8825;48.086;16.426;2023-08-08T14:18:44;24.80;36.90
17415;DHT22;8825;48.086;16.426;2023-08-08T14:21:11;24.90;36.10
17415;DHT22;8825;48.086;16.426;2023-08-08T14:23:38;24.80;34.90
17415;DHT22;8825;48.086;16.426;2023-08-08T14:26:06;24.70;35.80
17415;DHT22;8825;48.086;16.426;2023-08-08T14:28:33;24.70;35.30
17415;DHT22;8825;48.086;16.426;2023-08-08T14:31:01;24.70;36.20
17415;DHT22;8825;48.086;16.426;2023-08-08T14:33:30;24.70;36.70
17415;DHT22;8825;48.086;16.426;2023-08-08T14:35:58;24.80;37.30
17415;DHT22;8825;48.086;16.426;2023-08-08T14:38:25;24.80;35.80
17415;DHT22;8825;48.086;16.426;2023-08-08T14:40:54;24.80;36.40
17415;DHT22;8825;48.086;16.426;2023-08-08T14:43:21;24.80;37.20
17415;DHT22;8825;48.086;16.426;2023-08-08T14:45:49;24.90;38.00
17415;DHT22;8825;48.086;16.426;2023-08-08T14:48:17;25.00;38.70
17415;DHT22;8825;48.086;16.426;2023-08-08T14:50:44;25.00;36.60
17415;DHT22;8825;48.086;16.426;2023-08-08T14:53:12;25.10;36.90
17415;DHT22;8825;48.086;16.426;2023-08-08T14:55:40;25.20;36.80
17415;DHT22;8825;48.086;16.426;2023-08-08T14:58:07;25.20;35.30
17415;DHT22;8825;48.086;16.426;2023-08-08T15:00:35;25.20;34.70
17415;DHT22;8825;48.086;16.426;2023-08-08T15:03:02;25.10;35.60
17415;DHT22;8825;48.086;16.426;2023-08-08T15:05:30;25.00;35.30
17415;DHT22;8825;48.086;16.426;2023-08-08T15:07:57;24.90;36.00
17415;DHT22;8825;48.086;16.426;2023-08-08T15:10:25;24.80;35.80
17415;DHT22;8825;48.086;16.426;2023-08-08T15:12:52;24.80;36.30
17415;DHT22;8825;48.086;16.426;2023-08-08T15:15:20;24.80;37.30
17415;DHT22;8825;48.086;16.426;2023-08-08T15:17:49;24.70;36.30
17415;DHT22;8825;48.086;16.426;2023-08-08T15:20:18;24.70;36.60
17415;DHT22;8825;48.086;16.426;2023-08-08T15:22:45;24.70;37.20
17415;DHT22;8825;48.086;16.426;2023-08-08T15:25:13;24.70;37.40
17415;DHT22;8825;48.086;16.426;2023-08-08T15:27:40;24.60;36.50
17415;DHT22;8825;48.086;16.426;2023-08-08T15:30:08;24.50;37.20
17415;DHT22;8825;48.086;16.426;2023-08-08T15:32:36;24.50;37.40
17415;DHT22;8825;48.086;16.426;2023-08-08T15:35:04;24.50;37.60
17415;DHT22;8825;48.086;16.426;2023-08-08T15:37:32;24.50;37.30